Time;durP1;ratioP1;P1;durP2;ratioP2;P2;SDS_P1;SDS_P2;PMS_P1;PMS_P2;Temp;Humidity;BMP_temperature;BMP_pressure;BME280_temperature;BME280_humidity;BME280_pressure;Samples;Min_cycle;Max_cycle;Signal;HPM_P1;HPM_P2
2024/01/14 00:01:53;;;;;;;43.05;18.25;;;2.00;99.90;;;;;;5051469;28;20636;-59
2024/01/14 00:04:19;;;;;;;44.28;19.30;;;2.00;99.90;;;;;;5051864;28;20166;-61
2024/01/14 00:06:45;;;;;;;38.78;18.60;;;2.00;99.90;;;;;;5051387;28;20308;-61
2024/01/14 00:09:11;;;;;;;42.53;19.10;;;2.00;99.90;;;;;;5051560;28;20178;-61
2024/01/14 00:11:37;;;;;;;46.13;18.30;;;2.00;99.90;;;;;;5051302;28;20171;-62
2024/01/14 00:14:03;;;;;;;37.30;17.15;;;2.00;99.90;;;;;;5051332;28;20169;-56
2024/01/14 00:16:35;;;;;;;46.42;21.50;;;2.00;99.90;;;;;;5051346;28;20179;-51
2024/01/14 00:19:02;;;;;;;41.10;20.48;;;2.00;99.90;;;;;;5051163;28;20670;-57
2024/01/14 00:21:27;;;;;;;48.50;22.25;;;2.00;99.90;;;;;;5051522;28;20246;-57
2024/01/14 00:23:53;;;;;;;42.75;19.25;;;2.10;99.90;;;;;;5051073;28;20253;-58
2024/01/14 00:26:20;;;;;;;50.75;22.35;;;2.10;99.90;;;;;;5051570;28;20185;-59
2024/01/14 00:28:46;;;;;;;36.10;16.88;;;2.10;99.90;;;;;;5051823;28;20205;-53
2024/01/14 00:31:12;;;;;;;49.53;22.55;;;2.10;99.90;;;;;;5051143;28;20170;-60
2024/01/14 00:33:40;;;;;;;38.08;17.88;;;2.10;99.90;;;;;;5051065;28;20638;-60
2024/01/14 00:36:06;;;;;;;45.38;21.85;;;2.00;99.90;;;;;;5051296;28;20182;-60
2024/01/14 00:38:32;;;;;;;41.15;19.95;;;2.10;99.90;;;;;;5051177;28;20209;-55
2024/01/14 00:40:58;;;;;;;44.53;20.50;;;2.10;99.90;;;;;;5051052;28;20246;-62
2024/01/14 00:43:24;;;;;;;44.75;20.67;;;2.10;99.90;;;;;;5050925;28;20194;-57
2024/01/14 00:45:49;;;;;;;49.85;23.58;;;2.10;99.90;;;;;;5051502;28;20270;-61
2024/01/14 00:48:15;;;;;;;42.08;19.05;;;2.10;99.90;;;;;;5050985;28;20194;-57
2024/01/14 00:50:41;;;;;;;43.35;21.38;;;2.10;99.90;;;;;;5051059;28;20178;-61
2024/01/14 00:53:06;;;;;;;44.00;17.42;;;2.10;99.90;;;;;;5050938;28;20159;-61
2024/01/14 00:55:32;;;;;;;44.55;18.98;;;2.00;99.90;;;;;;5050760;28;20688;-59
2024/01/14 00:57:57;;;;;;;44.85;20.52;;;2.10;99.90;;;;;;5050820;28;20247;-62
2024/01/14 01:00:24;;;;;;;43.70;19.25;;;2.10;99.90;;;;;;5050738;28;20260;-59
2024/01/14 01:02:50;;;;;;;49.22;22.08;;;2.00;99.90;;;;;;5051220;28;20202;-55
2024/01/14 01:05:15;;;;;;;46.53;22.52;;;2.00;99.90;;;;;;5054171;28;20243;-59
2024/01/14 01:07:41;;;;;;;42.15;21.15;;;2.00;99.90;;;;;;5054414;28;20208;-61
2024/01/14 01:10:07;;;;;;;38.58;18.20;;;2.10;99.90;;;;;;5054672;28;20178;-55
2024/01/14 01:12:32;;;;;;;51.75;24.10;;;2.10;99.90;;;;;;5054678;28;20169;-57
2024/01/14 01:14:58;;;;;;;45.65;21.45;;;2.00;99.90;;;;;;5054863;28;20178;-58
2024/01/14 01:17:23;;;;;;;50.05;22.02;;;2.00;99.90;;;;;;5054597;28;20171;-57
2024/01/14 01:19:49;;;;;;;38.13;17.88;;;2.00;99.90;;;;;;5055138;28;20210;-61
2024/01/14 01:22:14;;;;;;;43.03;18.92;;;2.00;99.90;;;;;;5054482;28;20235;-44
2024/01/14 01:24:40;;;;;;;48.38;21.85;;;2.00;99.90;;;;;;5054605;28;20175;-44
2024/01/14 01:27:06;;;;;;;34.97;16.73;;;2.00;99.90;;;;;;5054380;28;20618;-44
2024/01/14 01:29:32;;;;;;;43.58;20.33;;;2.00;99.90;;;;;;5054326;28;20619;-45
2024/01/14 01:31:57;;;;;;;37.67;17.13;;;2.00;99.90;;;;;;5054547;28;20174;-44
2024/01/14 01:34:23;;;;;;;42.50;20.98;;;2.00;99.90;;;;;;5054278;28;20232;-44
2024/01/14 01:36:48;;;;;;;56.85;22.65;;;2.00;99.90;;;;;;5054627;28;20250;-45
2024/01/14 01:39:14;;;;;;;44.30;20.10;;;2.00;99.90;;;;;;5054094;28;20217;-44
2024/01/14 01:41:40;;;;;;;47.13;20.20;;;2.00;99.90;;;;;;5054397;28;20190;-44
2024/01/14 01:44:05;;;;;;;35.35;18.45;;;2.00;99.90;;;;;;5053997;28;20178;-45
2024/01/14 01:46:32;;;;;;;37.75;17.83;;;2.00;99.90;;;;;;5054064;28;20175;-45
2024/01/14 01:48:58;;;;;;;33.63;16.92;;;1.90;99.90;;;;;;5053998;28;20182;-44
2024/01/14 01:51:25;;;;;;;38.97;19.95;;;1.80;99.90;;;;;;5053872;28;20211;-44
2024/01/14 01:53:50;;;;;;;30.88;16.38;;;1.90;99.90;;;;;;5054148;28;20220;-44
2024/01/14 01:56:17;;;;;;;41.67;18.58;;;1.90;99.90;;;;;;5054211;28;20222;-43
2024/01/14 01:58:43;;;;;;;32.30;15.40;;;1.80;99.90;;;;;;5053677;28;20208;-44
2024/01/14 02:01:09;;;;;;;34.92;16.65;;;1.80;99.90;;;;;;5053640;28;20249;-44
2024/01/14 02:03:36;;;;;;;30.85;16.17;;;1.80;99.90;;;;;;5053790;28;20162;-45
2024/01/14 02:06:02;;;;;;;38.95;19.23;;;1.90;99.90;;;;;;5053690;28;20174;-44
2024/01/14 02:08:28;;;;;;;32.65;14.90;;;1.90;99.90;;;;;;5053559;28;20630;-44
2024/01/14 02:10:54;;;;;;;40.90;17.98;;;1.90;99.90;;;;;;5053828;28;20231;-44
2024/01/14 02:13:19;;;;;;;33.58;15.30;;;1.90;99.90;;;;;;5053967;28;20170;-44
2024/01/14 02:15:45;;;;;;;45.67;20.35;;;1.90;99.90;;;;;;5053956;28;20253;-44
2024/01/14 02:18:11;;;;;;;38.53;16.83;;;1.90;99.90;;;;;;5053437;28;20313;-44
2024/01/14 02:20:36;;;;;;;38.85;16.15;;;1.90;99.90;;;;;;5053242;28;20277;-57
2024/01/14 02:23:05;;;;;;;39.33;16.70;;;1.90;99.90;;;;;;5053584;28;20163;-51
2024/01/14 02:25:31;;;;;;;32.00;13.32;;;1.90;99.90;;;;;;5053296;28;20245;-58
2024/01/14 02:27:57;;;;;;;35.40;17.33;;;1.90;99.90;;;;;;5053223;28;20694;-57
2024/01/14 02:30:23;;;;;;;35.90;15.88;;;1.90;99.90;;;;;;5053467;28;20250;-57
2024/01/14 02:32:50;;;;;;;40.35;21.15;;;1.90;99.90;;;;;;5053759;28;20228;-49
2024/01/14 02:35:15;;;;;;;33.95;17.10;;;1.90;99.90;;;;;;5053822;28;20166;-57
2024/01/14 02:37:43;;;;;;;40.47;18.60;;;1.90;99.90;;;;;;5053031;28;20170;-61
2024/01/14 02:40:10;;;;;;;40.25;19.45;;;1.90;99.90;;;;;;5052870;28;20215;-60
2024/01/14 02:42:36;;;;;;;26.63;13.27;;;2.00;99.90;;;;;;5053036;28;20171;-60
2024/01/14 02:45:02;;;;;;;38.78;17.67;;;1.90;99.90;;;;;;5053289;28;20585;-55
2024/01/14 02:47:28;;;;;;;36.35;17.67;;;2.00;99.90;;;;;;5052863;28;20590;-62
2024/01/14 02:49:53;;;;;;;35.70;16.98;;;1.90;99.90;;;;;;5052956;28;20171;-50
2024/01/14 02:52:19;;;;;;;34.35;17.02;;;1.90;99.90;;;;;;5053249;28;20167;-61
2024/01/14 02:54:44;;;;;;;36.42;17.08;;;1.90;99.90;;;;;;5052821;28;20166;-62
2024/01/14 02:57:10;;;;;;;31.98;15.32;;;1.90;99.90;;;;;;5052597;28;20230;-62
2024/01/14 02:59:37;;;;;;;31.00;14.55;;;1.90;99.90;;;;;;5052582;28;20210;-62
2024/01/14 03:02:03;;;;;;;22.55;10.75;;;1.90;99.90;;;;;;5052858;28;20193;-60
2024/01/14 03:04:28;;;;;;;31.30;16.77;;;1.90;99.90;;;;;;5052594;28;20614;-59
2024/01/14 03:06:54;;;;;;;25.58;13.68;;;1.90;99.90;;;;;;5052565;28;20622;-62
2024/01/14 03:09:20;;;;;;;31.98;16.17;;;1.90;99.90;;;;;;5053204;28;20170;-51
2024/01/14 03:11:45;;;;;;;37.13;15.52;;;2.90;99.90;;;;;;5052912;28;20539;-54
2024/01/14 03:14:11;;;;;;;30.30;14.07;;;1.90;99.90;;;;;;5052391;28;20579;-51
2024/01/14 03:16:36;;;;;;;34.50;13.38;;;1.90;99.90;;;;;;5052349;28;20600;-51
2024/01/14 03:19:02;;;;;;;35.08;16.05;;;1.90;99.90;;;;;;5052456;28;20202;-49
2024/01/14 03:21:27;;;;;;;27.25;12.98;;;1.90;99.90;;;;;;5052394;28;20174;-54
2024/01/14 03:23:53;;;;;;;23.02;11.25;;;1.90;99.90;;;;;;5052162;28;20171;-56
2024/01/14 03:26:19;;;;;;;30.60;14.30;;;1.90;99.90;;;;;;5052221;28;20163;-49
2024/01/14 03:28:45;;;;;;;27.80;12.27;;;1.90;99.90;;;;;;5051972;28;20216;-48
2024/01/14 03:31:15;;;;;;;26.08;12.98;;;1.90;99.90;;;;;;5052283;28;20171;-55
2024/01/14 03:33:42;;;;;;;29.52;16.05;;;1.90;99.90;;;;;;5052001;28;20163;-55
2024/01/14 03:36:08;;;;;;;31.50;14.43;;;1.90;99.90;;;;;;5051930;28;20166;-60
2024/01/14 03:38:33;;;;;;;27.27;12.65;;;1.90;99.90;;;;;;5052083;28;20171;-59
2024/01/14 03:40:59;;;;;;;24.42;12.00;;;1.90;99.90;;;;;;5051845;28;20167;-57
2024/01/14 03:43:25;;;;;;;28.92;14.63;;;1.80;99.90;;;;;;5051790;28;20623;-49
2024/01/14 03:45:50;;;;;;;25.70;13.70;;;1.80;99.90;;;;;;5051818;28;20197;-43
2024/01/14 03:48:16;;;;;;;20.17;10.23;;;1.80;99.90;;;;;;5052271;28;20171;-48
2024/01/14 03:50:41;;;;;;;21.65;9.38;;;1.80;99.90;;;;;;5051669;28;20257;-50
2024/01/14 03:53:07;;;;;;;27.25;11.02;;;1.80;99.90;;;;;;5051635;28;20162;-49
2024/01/14 03:55:33;;;;;;;30.73;13.80;;;1.80;99.90;;;;;;5051492;28;20301;-45
2024/01/14 03:57:59;;;;;;;33.53;15.98;;;1.70;99.90;;;;;;5051591;28;20159;-50
2024/01/14 04:00:24;;;;;;;34.70;15.25;;;1.70;99.90;;;;;;5051537;28;20263;-52
2024/01/14 04:02:50;;;;;;;26.35;13.75;;;1.70;99.90;;;;;;5051870;28;20631;-44
2024/01/14 04:05:15;;;;;;;33.72;17.25;;;1.70;99.90;;;;;;5051978;28;20202;-49
2024/01/14 04:07:41;;;;;;;32.45;16.75;;;1.80;99.90;;;;;;5051385;28;20169;-45
2024/01/14 04:10:07;;;;;;;26.67;13.25;;;1.70;99.90;;;;;;5051420;28;20175;-44
2024/01/14 04:12:32;;;;;;;28.50;14.05;;;1.80;99.90;;;;;;5051359;28;20249;-45
2024/01/14 04:14:58;;;;;;;34.20;15.63;;;1.80;99.90;;;;;;5051291;28;20316;-44
2024/01/14 04:17:24;;;;;;;34.70;15.32;;;1.70;99.90;;;;;;5051266;28;20167;-44
2024/01/14 04:19:49;;;;;;;33.88;15.27;;;1.70;99.90;;;;;;5051670;28;20670;-44
2024/01/14 04:22:15;;;;;;;32.10;15.55;;;1.80;99.90;;;;;;5051822;28;20744;-44
2024/01/14 04:24:41;;;;;;;30.63;15.27;;;1.80;99.90;;;;;;5051229;28;20540;-44
2024/01/14 04:27:07;;;;;;;28.95;12.57;;;1.70;99.90;;;;;;5051401;28;20526;-44
2024/01/14 04:29:33;;;;;;;34.95;16.55;;;1.70;99.90;;;;;;5051072;28;20171;-44
2024/01/14 04:32:00;;;;;;;36.85;17.15;;;1.60;99.90;;;;;;5051240;28;20162;-43
2024/01/14 04:34:25;;;;;;;30.77;14.00;;;1.80;99.90;;;;;;5051360;28;20577;-45
2024/01/14 04:36:51;;;;;;;27.88;12.57;;;1.80;99.90;;;;;;5051113;28;20167;-44
2024/01/14 04:39:16;;;;;;;35.63;16.48;;;1.70;99.90;;;;;;5050595;28;20645;-45
2024/01/14 04:41:42;;;;;;;31.63;14.98;;;1.80;99.90;;;;;;5050984;28;20182;-44
2024/01/14 04:44:07;;;;;;;35.25;14.88;;;1.80;99.90;;;;;;5051043;28;20185;-44
2024/01/14 04:46:33;;;;;;;20.40;11.13;;;1.80;99.90;;;;;;5050967;28;20234;-44
2024/01/14 04:48:58;;;;;;;29.05;13.48;;;1.70;99.90;;;;;;5051017;28;20170;-45
2024/01/14 04:51:24;;;;;;;21.98;11.00;;;1.80;99.90;;;;;;5050987;28;20175;-44
2024/01/14 04:53:49;;;;;;;29.58;14.68;;;1.70;99.90;;;;;;5051081;28;20174;-44
2024/01/14 04:56:15;;;;;;;27.70;12.27;;;1.70;99.90;;;;;;5051329;28;20218;-46
2024/01/14 04:58:41;;;;;;;31.48;14.15;;;1.70;99.90;;;;;;5050797;28;20285;-45
2024/01/14 05:01:06;;;;;;;28.70;13.52;;;1.80;99.90;;;;;;5050811;28;20540;-42
2024/01/14 05:03:32;;;;;;;27.55;12.73;;;1.80;99.90;;;;;;5051120;28;20254;-45
2024/01/14 05:05:58;;;;;;;23.42;12.00;;;1.80;99.90;;;;;;5051028;28;20174;-42
2024/01/14 05:08:23;;;;;;;22.73;11.18;;;1.80;99.90;;;;;;5050771;28;20638;-44
2024/01/14 05:10:49;;;;;;;21.33;11.05;;;1.80;99.90;;;;;;5050905;28;20170;-46
2024/01/14 05:13:14;;;;;;;22.08;11.38;;;1.80;99.90;;;;;;5051228;28;20174;-48
2024/01/14 05:15:40;;;;;;;22.13;10.60;;;1.80;99.90;;;;;;5050636;28;20497;-44
2024/01/14 05:18:06;;;;;;;26.40;12.88;;;1.70;99.90;;;;;;5050627;28;20174;-48
2024/01/14 05:20:31;;;;;;;23.20;11.73;;;1.70;99.90;;;;;;5050696;28;20234;-45
2024/01/14 05:22:57;;;;;;;31.52;12.82;;;1.70;99.90;;;;;;5050628;28;20170;-44
2024/01/14 05:25:22;;;;;;;24.92;10.90;;;1.70;99.90;;;;;;5050596;28;20552;-44
2024/01/14 05:27:48;;;;;;;25.10;12.52;;;1.70;99.90;;;;;;5051052;28;20641;-44
2024/01/14 05:30:14;;;;;;;18.65;9.05;;;1.70;99.90;;;;;;5050601;28;20553;-44
2024/01/14 05:32:39;;;;;;;21.25;9.98;;;1.70;99.90;;;;;;5050812;28;20171;-44
2024/01/14 05:35:05;;;;;;;23.80;10.82;;;1.70;99.90;;;;;;5050436;28;20162;-44
2024/01/14 05:37:34;;;;;;;26.20;12.27;;;1.70;99.90;;;;;;5050555;28;20167;-44
2024/01/14 05:39:59;;;;;;;19.88;8.68;;;1.70;99.90;;;;;;5050389;28;20206;-46
2024/01/14 05:42:25;;;;;;;26.98;12.63;;;1.70;99.90;;;;;;5050728;28;20167;-44
2024/01/14 05:44:50;;;;;;;25.20;9.70;;;1.70;99.90;;;;;;5050383;28;20619;-43
2024/01/14 05:47:16;;;;;;;25.42;12.55;;;1.70;99.90;;;;;;5050823;28;20171;-45
2024/01/14 05:49:41;;;;;;;22.73;11.15;;;1.70;99.90;;;;;;5049512;28;20175;-44
2024/01/14 05:52:07;;;;;;;21.05;9.57;;;1.70;99.90;;;;;;5053923;28;20626;-44
2024/01/14 05:54:33;;;;;;;25.23;11.15;;;1.70;99.90;;;;;;5053930;28;20179;-44
2024/01/14 05:56:58;;;;;;;28.20;11.80;;;1.70;99.90;;;;;;5053729;28;20225;-45
2024/01/14 05:59:24;;;;;;;26.67;12.65;;;1.70;99.90;;;;;;5053674;28;20203;-44
2024/01/14 06:01:49;;;;;;;28.92;12.13;;;1.70;99.90;;;;;;5053970;28;20171;-43
2024/01/14 06:04:15;;;;;;;20.58;10.65;;;1.70;99.90;;;;;;5054245;28;20166;-43
2024/01/14 06:06:41;;;;;;;19.98;8.77;;;1.70;99.90;;;;;;5052399;28;20590;-44
2024/01/14 06:09:06;;;;;;;25.00;8.73;;;1.60;99.90;;;;;;5053604;28;20173;-44
2024/01/14 06:11:32;;;;;;;19.85;9.70;;;1.70;99.90;;;;;;5053612;28;20245;-44
2024/01/14 06:13:57;;;;;;;25.10;10.88;;;1.60;99.90;;;;;;5053516;28;20292;-45
2024/01/14 06:16:24;;;;;;;20.60;10.40;;;1.60;99.90;;;;;;5053466;28;20178;-44
2024/01/14 06:18:50;;;;;;;21.80;11.05;;;1.60;99.90;;;;;;5053623;28;20203;-44
2024/01/14 06:21:16;;;;;;;18.80;8.68;;;1.70;99.90;;;;;;5052611;28;20177;-46
2024/01/14 06:23:41;;;;;;;21.35;10.00;;;1.60;99.90;;;;;;5053296;28;20166;-44
2024/01/14 06:26:07;;;;;;;23.88;11.25;;;1.70;99.90;;;;;;5053632;28;20170;-44
2024/01/14 06:28:32;;;;;;;18.00;8.52;;;1.70;99.90;;;;;;5053290;28;20191;-44
2024/01/14 06:30:58;;;;;;;19.98;9.18;;;1.70;99.90;;;;;;5053227;28;20167;-44
2024/01/14 06:33:23;;;;;;;22.90;11.18;;;1.70;99.90;;;;;;5053337;28;20161;-44
2024/01/14 06:35:49;;;;;;;16.67;8.43;;;1.70;99.90;;;;;;5053603;28;20250;-47
2024/01/14 06:38:15;;;;;;;16.25;7.03;;;1.60;99.90;;;;;;5053851;28;20167;-46
2024/01/14 06:40:40;;;;;;;18.40;9.50;;;1.60;99.90;;;;;;5053020;28;20234;-56
2024/01/14 06:43:08;;;;;;;20.33;9.98;;;1.70;99.90;;;;;;5053092;28;20198;-62
2024/01/14 06:45:33;;;;;;;21.25;10.18;;;1.60;99.90;;;;;;5053287;28;20181;-44
2024/01/14 06:47:59;;;;;;;22.92;11.02;;;1.60;99.90;;;;;;5052902;28;20242;-44
2024/01/14 06:50:25;;;;;;;20.33;10.15;;;1.60;99.90;;;;;;5052930;28;20167;-44
2024/01/14 06:52:51;;;;;;;20.67;9.55;;;1.60;99.90;;;;;;5053145;28;20296;-43
2024/01/14 06:55:16;;;;;;;16.17;7.93;;;1.70;99.90;;;;;;5053224;28;20184;-47
2024/01/14 06:57:42;;;;;;;20.30;9.32;;;1.70;99.90;;;;;;5052749;28;20170;-44
2024/01/14 07:00:09;;;;;;;22.98;11.20;;;1.70;99.90;;;;;;5052697;28;20210;-44
2024/01/14 07:02:34;;;;;;;23.98;11.10;;;1.70;99.90;;;;;;5052119;28;20175;-44
2024/01/14 07:05:00;;;;;;;16.48;8.98;;;1.70;99.90;;;;;;5052671;28;20177;-44
2024/01/14 07:07:27;;;;;;;17.92;9.15;;;1.70;99.90;;;;;;5052614;28;20206;-44
2024/01/14 07:09:52;;;;;;;21.45;10.82;;;1.70;99.90;;;;;;5052566;28;20252;-46
2024/01/14 07:12:18;;;;;;;19.50;10.27;;;1.70;99.90;;;;;;5052969;28;20642;-45
2024/01/14 07:14:43;;;;;;;23.73;11.07;;;1.70;99.90;;;;;;5052405;28;20166;-44
2024/01/14 07:17:09;;;;;;;18.40;9.32;;;1.70;99.90;;;;;;5052369;28;20197;-44
2024/01/14 07:19:37;;;;;;;15.38;8.65;;;1.60;99.90;;;;;;5052235;28;20202;-44
2024/01/14 07:22:04;;;;;;;18.98;9.48;;;1.60;99.90;;;;;;5052297;28;20167;-44
2024/01/14 07:24:30;;;;;;;15.55;7.85;;;1.60;99.90;;;;;;5052448;28;20174;-44
2024/01/14 07:26:56;;;;;;;17.98;8.55;;;1.60;99.90;;;;;;5052406;28;20232;-44
2024/01/14 07:29:21;;;;;;;10.75;6.40;;;1.60;99.90;;;;;;5052099;28;20162;-44
2024/01/14 07:31:47;;;;;;;20.95;9.40;;;1.50;99.90;;;;;;5052633;28;20171;-44
2024/01/14 07:34:13;;;;;;;14.57;7.28;;;1.60;99.90;;;;;;5052047;28;20178;-50
2024/01/14 07:36:38;;;;;;;15.52;7.90;;;1.60;99.90;;;;;;5051964;28;20163;-46
2024/01/14 07:39:04;;;;;;;16.98;7.43;;;1.60;99.90;;;;;;5051798;28;20198;-47
2024/01/14 07:41:30;;;;;;;11.45;5.78;;;1.60;99.90;;;;;;5052055;28;20182;-44
2024/01/14 07:43:56;;;;;;;13.75;7.72;;;1.50;99.90;;;;;;5051805;28;20170;-44
2024/01/14 07:46:21;;;;;;;16.23;8.35;;;1.50;99.90;;;;;;5051778;28;20174;-47
2024/01/14 07:48:47;;;;;;;13.73;7.18;;;1.60;99.90;;;;;;5051860;28;20181;-44
2024/01/14 07:51:12;;;;;;;13.70;7.65;;;1.60;99.90;;;;;;5051714;28;20697;-45
2024/01/14 07:53:38;;;;;;;12.40;6.30;;;1.60;99.90;;;;;;5051665;28;20159;-47
2024/01/14 07:56:04;;;;;;;12.20;6.90;;;1.60;99.90;;;;;;5051500;28;20352;-45
2024/01/14 07:58:30;;;;;;;11.30;6.18;;;1.50;99.90;;;;;;5051542;28;20523;-45
2024/01/14 08:00:55;;;;;;;18.20;8.35;;;1.50;99.90;;;;;;5051812;28;20176;-45
2024/01/14 08:03:21;;;;;;;16.40;7.95;;;1.50;99.90;;;;;;5051457;28;20626;-47
2024/01/14 08:05:48;;;;;;;14.80;6.85;;;1.50;99.90;;;;;;5052119;28;20297;-44
2024/01/14 08:08:14;;;;;;;14.43;7.55;;;1.50;99.90;;;;;;5051386;28;20198;-49
2024/01/14 08:10:39;;;;;;;14.00;7.50;;;1.50;99.90;;;;;;5051299;28;20236;-48
2024/01/14 08:13:05;;;;;;;16.90;8.70;;;1.40;99.90;;;;;;5051530;28;20171;-46
2024/01/14 08:15:31;;;;;;;15.98;7.55;;;1.50;99.90;;;;;;5051315;28;20186;-44
2024/01/14 08:17:56;;;;;;;15.82;7.75;;;1.50;99.90;;;;;;5051488;28;20186;-45
2024/01/14 08:20:22;;;;;;;18.50;8.50;;;1.50;99.90;;;;;;5050709;28;20206;-51
2024/01/14 08:22:48;;;;;;;13.65;7.13;;;1.50;99.90;;;;;;5051611;28;20173;-52
2024/01/14 08:25:14;;;;;;;12.95;7.25;;;1.50;99.90;;;;;;5051086;28;20172;-44
2024/01/14 08:27:40;;;;;;;15.07;6.78;;;1.50;99.90;;;;;;5051164;28;20630;-44
2024/01/14 08:30:06;;;;;;;15.52;6.30;;;1.50;99.90;;;;;;5051147;28;20179;-45
2024/01/14 08:32:32;;;;;;;12.48;6.60;;;1.50;99.90;;;;;;5051162;28;20167;-45
2024/01/14 08:34:58;;;;;;;13.85;5.85;;;1.50;99.90;;;;;;5051119;28;20170;-44
2024/01/14 08:37:24;;;;;;;14.20;6.95;;;1.50;99.90;;;;;;5051111;28;20645;-46
2024/01/14 08:39:50;;;;;;;13.18;5.38;;;1.50;99.90;;;;;;5051136;28;20198;-44
2024/01/14 08:42:16;;;;;;;14.52;8.15;;;1.50;99.90;;;;;;5050170;28;20525;-47
2024/01/14 08:44:42;;;;;;;14.93;6.32;;;1.50;99.90;;;;;;5051038;28;20189;-44
2024/01/14 08:47:08;;;;;;;9.98;5.78;;;1.50;99.90;;;;;;5051027;28;20171;-48
2024/01/14 08:49:34;;;;;;;14.98;7.55;;;1.60;99.90;;;;;;5051168;28;20166;-46
2024/01/14 08:52:01;;;;;;;15.18;7.63;;;1.60;99.90;;;;;;5051172;28;20182;-46
2024/01/14 08:54:30;;;;;;;11.57;6.53;;;1.60;99.90;;;;;;5051117;28;20204;-44
2024/01/14 08:56:56;;;;;;;12.63;6.57;;;1.60;99.90;;;;;;5050732;28;20214;-44
2024/01/14 08:59:21;;;;;;;11.02;6.55;;;1.60;99.90;;;;;;5050856;28;20206;-44
2024/01/14 09:01:47;;;;;;;12.52;6.00;;;1.70;99.90;;;;;;5051327;28;20185;-44
2024/01/14 09:04:12;;;;;;;11.15;5.22;;;1.60;99.90;;;;;;5050751;28;20171;-44
2024/01/14 09:06:39;;;;;;;10.30;5.57;;;1.60;99.90;;;;;;5050722;28;20258;-61
2024/01/14 09:09:04;;;;;;;6.75;4.43;;;1.60;99.90;;;;;;5050778;28;20174;-56
2024/01/14 09:11:31;;;;;;;8.40;4.13;;;1.60;99.90;;;;;;5050687;28;20175;-49
2024/01/14 09:13:56;;;;;;;11.55;7.20;;;1.50;99.90;;;;;;5050589;28;20664;-55
2024/01/14 09:16:22;;;;;;;12.23;6.28;;;1.60;99.90;;;;;;5050773;28;20170;-57
2024/01/14 09:18:47;;;;;;;13.20;6.97;;;1.60;99.90;;;;;;5051023;28;20167;-50
2024/01/14 09:21:13;;;;;;;15.85;7.15;;;1.60;99.90;;;;;;5050785;28;20181;-58
2024/01/14 09:23:38;;;;;;;11.40;6.32;;;1.60;99.90;;;;;;5050658;28;20506;-61
2024/01/14 09:26:04;;;;;;;10.23;6.38;;;1.60;99.90;;;;;;5053390;28;20700;-61
2024/01/14 09:28:29;;;;;;;12.23;6.45;;;1.50;99.90;;;;;;5054677;28;20167;-63
2024/01/14 09:30:55;;;;;;;12.15;6.35;;;1.40;99.90;;;;;;5054401;28;20166;-58
2024/01/14 09:33:21;;;;;;;13.43;7.32;;;1.50;99.90;;;;;;5054293;28;20639;-55
2024/01/14 09:35:46;;;;;;;16.80;7.43;;;1.50;99.90;;;;;;5054702;28;20173;-49
2024/01/14 09:38:12;;;;;;;12.07;6.28;;;1.60;99.90;;;;;;5053821;28;20197;-54
2024/01/14 09:40:37;;;;;;;10.95;6.15;;;1.50;99.90;;;;;;5054317;28;20300;-61
2024/01/14 09:43:04;;;;;;;9.15;5.60;;;1.30;99.90;;;;;;5054401;28;20170;-53
2024/01/14 09:45:34;;;;;;;19.38;6.55;;;1.40;99.90;;;;;;5053772;28;20231;-57
2024/01/14 09:47:59;;;;;;;8.93;5.18;;;1.50;99.90;;;;;;5054254;28;20182;-62
2024/01/14 09:50:25;;;;;;;11.75;6.28;;;1.40;99.90;;;;;;5054085;28;20170;-62
2024/01/14 09:52:52;;;;;;;11.43;6.10;;;1.50;99.90;;;;;;5053670;28;20193;-52
2024/01/14 09:55:18;;;;;;;14.07;6.95;;;1.60;99.90;;;;;;5054045;28;20244;-53
2024/01/14 09:57:47;;;;;;;9.57;5.60;;;1.50;99.90;;;;;;5053822;28;20638;-54
2024/01/14 10:00:14;;;;;;;10.35;6.15;;;1.50;99.90;;;;;;5053452;28;20206;-52
2024/01/14 10:02:40;;;;;;;12.52;6.70;;;1.50;99.90;;;;;;5053347;28;20212;-56
2024/01/14 10:05:07;;;;;;;13.35;6.82;;;1.50;99.90;;;;;;5053317;28;20167;-66
2024/01/14 10:07:33;;;;;;;10.63;6.25;;;1.60;99.90;;;;;;5053911;28;20249;-56
2024/01/14 10:09:58;;;;;;;12.90;5.90;;;1.60;99.90;;;;;;5053644;28;20630;-54
2024/01/14 10:12:25;;;;;;;10.50;5.55;;;1.60;99.90;;;;;;5053388;28;20177;-44
2024/01/14 10:15:01;;;;;;;12.70;5.65;;;1.60;99.90;;;;;;5053147;28;20174;-44
2024/01/14 10:17:29;;;;;;;6.60;4.50;;;1.60;99.90;;;;;;5053517;28;20162;-57
2024/01/14 10:19:57;;;;;;;11.57;6.10;;;1.50;99.90;;;;;;5052898;28;20226;-58
2024/01/14 10:22:25;;;;;;;8.18;5.35;;;1.60;99.90;;;;;;5052960;28;20220;-47
2024/01/14 10:24:51;;;;;;;7.05;3.88;;;1.60;99.90;;;;;;5052886;28;20725;-56
2024/01/14 10:27:18;;;;;;;9.32;5.38;;;1.50;99.90;;;;;;5053941;28;20220;-60
2024/01/14 10:29:43;;;;;;;5.93;3.40;;;1.50;99.90;;;;;;5052043;28;20529;-62
2024/01/14 10:32:09;;;;;;;8.40;4.88;;;1.40;99.90;;;;;;5053162;28;20228;-58
2024/01/14 10:34:34;;;;;;;9.00;5.40;;;1.40;99.90;;;;;;5053175;28;20244;-56
2024/01/14 10:37:01;;;;;;;10.68;5.85;;;1.40;99.90;;;;;;5051970;28;20673;-57
2024/01/14 10:39:33;;;;;;;11.27;5.95;;;1.50;99.90;;;;;;5053010;28;20215;-60
2024/01/14 10:42:01;;;;;;;16.33;6.57;;;1.40;99.90;;;;;;5053088;28;20174;-59
2024/01/14 10:44:27;;;;;;;10.30;6.05;;;1.50;99.90;;;;;;5051154;28;20676;-56
2024/01/14 10:46:53;;;;;;;10.40;5.65;;;1.40;99.90;;;;;;5052952;28;20210;-53
2024/01/14 10:49:25;;;;;;;9.00;5.50;;;1.50;99.90;;;;;;5052893;28;20166;-52
2024/01/14 10:52:07;;;;;;;11.73;6.03;;;1.50;99.90;;;;;;5052846;28;20179;-49
2024/01/14 10:54:50;;;;;;;8.68;5.38;;;1.50;99.90;;;;;;5052509;28;20174;-52
2024/01/14 10:57:37;;;;;;;10.23;5.57;;;1.60;99.90;;;;;;5053240;28;20593;-52
2024/01/14 11:00:08;;;;;;;9.88;5.53;;;1.70;99.90;;;;;;5052570;28;20213;-51
2024/01/14 11:02:39;;;;;;;11.40;6.22;;;1.70;99.90;;;;;;5052591;28;20641;-48
2024/01/14 11:05:06;;;;;;;9.80;5.57;;;1.70;99.90;;;;;;5052611;28;20181;-48
2024/01/14 11:07:36;;;;;;;10.60;5.97;;;1.70;99.90;;;;;;5052473;28;20170;-52
2024/01/14 11:10:04;;;;;;;10.38;6.05;;;1.70;99.90;;;;;;5052451;28;20190;-50
2024/01/14 11:12:41;;;;;;;8.02;5.20;;;1.80;99.90;;;;;;5052423;28;20642;-48
2024/01/14 11:15:13;;;;;;;7.90;4.40;;;1.70;99.90;;;;;;5052466;28;20166;-54
2024/01/14 11:18:13;;;;;;;6.53;3.47;;;1.70;99.90;;;;;;5052274;28;20174;-54
2024/01/14 11:20:42;;;;;;;8.85;4.43;;;1.70;99.90;;;;;;5052145;28;20753;-53
2024/01/14 11:23:07;;;;;;;8.63;5.43;;;1.80;99.90;;;;;;5052495;28;20179;-53
2024/01/14 11:25:35;;;;;;;7.63;5.05;;;1.70;99.90;;;;;;5052442;28;20236;-54
2024/01/14 11:28:02;;;;;;;9.98;4.40;;;1.70;99.90;;;;;;5052397;28;20205;-53
2024/01/14 11:30:53;;;;;;;9.23;5.38;;;1.70;99.90;;;;;;5052057;28;20170;-54
2024/01/14 11:33:42;;;;;;;9.52;5.03;;;1.60;99.90;;;;;;5052307;28;20170;-54
2024/01/14 11:36:09;;;;;;;11.77;6.45;;;1.60;99.90;;;;;;5052268;28;20248;-54
2024/01/14 11:38:35;;;;;;;8.52;4.28;;;1.50;99.90;;;;;;5051995;28;20170;-53
2024/01/14 11:41:30;;;;;;;9.93;4.90;;;1.50;99.90;;;;;;5052048;28;20213;-54
2024/01/14 11:44:03;;;;;;;6.85;4.22;;;1.50;99.90;;;;;;5050562;28;20167;-53
2024/01/14 11:46:43;;;;;;;9.77;5.72;;;1.50;99.90;;;;;;5051832;28;20169;-53
2024/01/14 11:49:17;;;;;;;9.02;4.82;;;1.50;99.90;;;;;;5051389;28;20964;-53
2024/01/14 11:52:09;;;;;;;7.03;4.35;;;1.50;99.90;;;;;;5051293;28;20177;-53
2024/01/14 11:54:36;;;;;;;9.10;4.85;;;1.60;99.90;;;;;;5050553;28;20306;-57
2024/01/14 11:57:25;;;;;;;6.57;4.38;;;1.60;99.90;;;;;;5051919;28;20264;-53
2024/01/14 11:59:52;;;;;;;5.65;3.42;;;1.60;99.90;;;;;;5051503;28;20213;-54
2024/01/14 12:02:17;;;;;;;8.45;4.82;;;1.60;99.90;;;;;;5052142;28;20225;-55
2024/01/14 12:04:43;;;;;;;8.13;4.80;;;1.70;99.90;;;;;;5051598;28;20171;-55
2024/01/14 12:07:09;;;;;;;7.55;3.88;;;1.70;99.90;;;;;;5051472;28;20220;-55
2024/01/14 12:09:35;;;;;;;8.40;4.78;;;1.70;99.90;;;;;;5051720;28;20632;-55
2024/01/14 12:12:07;;;;;;;6.28;3.58;;;1.80;99.90;;;;;;5051491;28;20191;-54
2024/01/14 12:14:37;;;;;;;8.48;4.15;;;1.70;99.90;;;;;;5051355;28;20167;-55
2024/01/14 12:17:12;;;;;;;8.07;4.70;;;1.80;99.90;;;;;;5051593;28;20249;-55
2024/01/14 12:19:37;;;;;;;8.55;4.72;;;1.70;99.90;;;;;;5051072;28;20189;-50
2024/01/14 12:22:03;;;;;;;9.45;5.47;;;1.80;99.90;;;;;;5050910;28;20530;-49
2024/01/14 12:24:29;;;;;;;6.72;3.85;;;1.80;99.90;;;;;;5051237;28;20182;-50
2024/01/14 12:26:58;;;;;;;8.55;4.82;;;1.80;99.90;;;;;;5051397;28;20179;-49
2024/01/14 12:29:24;;;;;;;9.40;4.60;;;1.80;99.90;;;;;;5051220;28;20163;-49
2024/01/14 12:31:49;;;;;;;9.07;4.55;;;1.90;99.90;;;;;;5050796;28;20181;-51
2024/01/14 12:34:15;;;;;;;5.82;3.17;;;1.90;99.90;;;;;;5051796;28;20167;-49
2024/01/14 12:36:40;;;;;;;7.28;4.05;;;1.90;99.90;;;;;;5051268;28;20181;-50
2024/01/14 12:39:06;;;;;;;7.95;4.50;;;1.90;99.90;;;;;;5050984;28;20202;-50
2024/01/14 12:41:32;;;;;;;5.88;3.35;;;1.80;99.90;;;;;;5051273;28;20257;-48